Latest Weather Observations for Cairns Racecourse

IDQ60801

Issued at 10:02 pm EST Sunday 25 January 2015 (issued every 30 minutes, with the page automatically refreshed every 10 minutes)

About weather observations | Map of weather stations | Latest weather observations for QLD | Other Formats
Station Details ID: 031222 Name: CAIRNS RACECOURSE Lat: -16.95 Lon: 145.75 Height: 4.1 m
Data from the previous 72 hours. | See also: Recent months for locations in Queensland
Date/Time
EST
Temp
°C
App
Temp
°C
Dew
Point
Rel
Hum
%
Delta-T
°C
Wind Press
QNH
hPa
Press
MSL
hPa
Rain
since 9 am
mm
Dir
 
Spd
km/h
Gust
km/h
Spd
kts
Gust
kts
25/10:00pm 25.7 29.9 24.7 94 0.7 SSE 11 17 6 9 - - 20.8
25/09:30pm 25.6 31.5 24.7 95 0.6 NNW 2 7 1 4 - - 20.4
25/09:00pm 25.6 30.7 24.6 94 0.7 WSW 6 9 3 5 - - 19.4
25/08:30pm 25.8 29.5 24.6 93 0.8 E 13 19 7 10 - - 18.6
25/08:00pm 25.7 29.8 23.9 90 1.2 SSE 9 15 5 8 - - 17.6
25/07:30pm 25.9 30.0 24.5 92 1.0 SW 11 17 6 9 - - 15.6
25/07:00pm 29.5 35.4 26.7 85 2.0 N 9 15 5 8 - - 0.0
25/06:30pm 29.6 35.6 26.4 83 2.3 NNE 7 15 4 8 - - 0.0
25/06:00pm 29.7 34.7 26.5 83 2.3 NNE 13 24 7 13 - - 0.0
25/05:30pm 30.8 35.5 26.1 76 3.4 N 13 24 7 13 - - 0.0
25/05:00pm 30.8 35.2 25.6 74 3.7 NNW 13 20 7 11 - - 0.0
25/04:30pm 32.3 36.3 25.1 65 5.1 N 13 26 7 14 - - 0.0
25/04:00pm 32.4 36.7 25.5 67 4.9 NNE 13 22 7 12 - - 0.0
25/03:30pm 32.3 36.3 25.1 65 5.1 NNE 13 24 7 13 - - 0.0
25/03:00pm 32.0 35.8 25.3 67 4.7 NE 15 26 8 14 - - 0.0
25/02:30pm 32.8 37.0 25.3 64 5.3 NNE 13 24 7 13 - - 0.0
25/02:00pm 32.5 35.9 25.3 66 5.1 NE 17 30 9 16 - - 0.0
25/01:30pm 33.0 36.5 25.5 64 5.3 NE 17 30 9 16 - - 0.0
25/01:00pm 33.8 37.7 24.9 59 6.3 ENE 13 20 7 11 - - 0.0
25/12:30pm 33.9 38.5 24.2 57 6.8 ESE 7 15 4 8 - - 0.0
25/12:00pm 33.4 37.7 24.3 59 6.4 NNW 9 17 5 9 - - 0.0
25/11:30am 32.3 36.3 22.7 57 6.6 WNW 6 11 3 6 - - 0.0
25/11:00am 30.9 33.3 23.0 62 5.4 NNW 15 20 8 11 - - 0.0
25/10:30am 30.5 34.7 23.2 65 5.0 SE 6 11 3 6 - - 0.0
25/10:00am 29.9 34.1 24.1 71 4.0 ESE 9 13 5 7 - - 0.0
25/09:30am 29.4 32.7 23.8 72 3.9 ENE 13 19 7 10 - - 0.0
25/09:00am 28.9 33.5 23.8 74 3.5 NE 6 11 3 6 - - 7.4
25/08:30am 27.8 33.0 23.6 78 2.9 NNW 2 7 1 4 - - 7.4
25/08:00am 27.0 33.8 25.6 92 1.0 CALM 0 0 0 0 - - 7.4
25/07:30am 25.9 31.2 25.0 95 0.6 N 6 9 3 5 - - 7.4
25/07:00am 25.3 31.6 24.8 97 0.3 CALM 0 0 0 0 - - 7.4
25/06:30am 24.6 30.5 24.1 97 0.3 CALM 0 0 0 0 - - 7.2
25/06:00am 24.5 30.2 23.8 96 0.5 CALM 0 0 0 0 - - 7.2
25/05:30am 24.6 30.4 23.9 96 0.5 CALM 0 6 0 3 - - 7.2
25/05:00am 24.7 29.8 24.0 96 0.5 N 4 7 2 4 - - 7.2
25/04:30am 24.6 30.4 23.9 96 0.5 CALM 0 7 0 4 - - 7.2
25/04:00am 24.8 30.7 24.1 96 0.5 CALM 0 0 0 0 - - 7.2
25/03:30am 24.6 29.8 23.6 94 0.7 SSW 2 7 1 4 - - 7.2
25/03:00am 24.8 30.6 23.9 95 0.6 CALM 0 0 0 0 - - 6.8
25/02:30am 24.7 29.2 23.7 94 0.7 S 6 9 3 5 - - 6.6
25/02:00am 24.7 29.1 23.8 95 0.6 SSE 7 9 4 5 - - 6.6
25/01:30am 24.7 29.3 23.8 95 0.6 SW 6 11 3 6 - - 6.6
25/01:00am 24.7 30.1 23.8 95 0.6 ESE 2 9 1 5 - - 6.4
25/12:30am 24.8 29.3 23.9 95 0.6 SSE 7 11 4 6 - - 6.4
25/12:00am 24.9 29.2 23.7 93 0.8 E 7 9 4 5 - - 6.2
 
Date/Time
EST
Temp
°C
App
Temp
°C
Dew
Point
Rel
Hum
%
Delta-T
°C
Wind Press
QNH
hPa
Press
MSL
hPa
Rain
since 9 am
mm
Dir
 
Spd
km/h
Gust
km/h
Spd
kts
Gust
kts
24/11:30pm 25.0 30.8 24.0 94 0.7 CALM 0 7 0 4 - - 5.8
24/11:00pm 25.1 28.8 23.9 93 0.8 ESE 11 13 6 7 - - 5.6
24/10:30pm 25.6 29.9 24.2 92 1.0 ESE 9 13 5 7 - - 5.4
24/10:00pm 25.3 29.5 23.4 89 1.3 SW 7 11 4 6 - - 5.2
24/09:30pm 26.4 31.4 24.8 91 1.1 SW 7 9 4 5 - - 4.8
24/09:00pm 27.3 34.0 25.9 92 1.0 NW 2 6 1 3 - - 4.2
24/08:30pm 27.6 33.6 26.0 91 1.1 E 6 9 3 5 - - 3.4
24/08:00pm 27.7 34.4 25.9 90 1.3 ESE 2 9 1 5 - - 2.6
24/07:30pm 28.5 33.8 25.9 86 1.8 NW 9 15 5 8 - - 0.8
24/07:00pm 29.5 35.3 25.7 80 2.7 NNW 6 13 3 7 - - 0.0
24/06:30pm 29.7 34.5 25.7 79 2.8 NNW 11 20 6 11 - - 0.0
24/06:00pm 30.0 34.8 25.7 78 3.0 NNW 11 17 6 9 - - 0.0
24/05:30pm 30.1 35.4 25.8 78 3.1 NNW 9 17 5 9 - - 0.0
24/05:00pm 30.0 35.4 25.5 77 3.2 N 7 11 4 6 - - 0.0
24/04:30pm 29.6 34.0 25.1 77 3.2 N 11 20 6 11 - - 0.0
24/04:00pm 30.1 35.1 25.4 76 3.3 NNE 9 17 5 9 - - 0.0
24/03:30pm 30.3 34.3 25.1 73 3.7 NNE 13 20 7 11 - - 0.0
24/03:00pm 31.5 35.7 25.4 70 4.3 NNE 13 24 7 13 - - 0.0
24/02:30pm 31.5 35.5 25.6 71 4.2 NNW 15 24 8 13 - - 0.0
24/02:00pm 30.1 34.2 24.5 72 3.9 N 11 19 6 10 - - 0.0
24/01:30pm 31.4 35.0 24.3 66 5.0 N 13 24 7 13 - - 0.0
24/01:00pm 32.5 35.3 23.7 59 6.1 NNE 15 24 8 13 - - 0.0
24/12:30pm 32.9 35.8 23.2 56 6.7 NNE 13 26 7 14 - - 0.0
24/12:00pm 33.3 36.8 23.6 56 6.7 NNE 11 24 6 13 - - 0.0
24/11:30am 33.3 37.1 22.4 52 7.5 NW 6 13 3 7 - - 0.0
24/11:00am 32.6 36.0 22.7 56 6.8 NW 9 15 5 8 - - 0.0
24/10:30am 32.9 37.5 24.1 60 6.2 W 7 13 4 7 - - 0.0
24/10:00am 32.0 37.1 23.3 60 6.0 N 2 9 1 5 - - 0.0
24/09:30am 31.7 36.3 23.2 60 5.9 W 4 11 2 6 - - 0.0
24/09:00am 30.7 35.5 24.4 69 4.4 NE 7 9 4 5 - - 2.6
24/08:30am 28.4 34.7 24.8 81 2.5 CALM 0 0 0 0 - - 2.6
24/08:00am 27.0 33.3 24.8 88 1.5 CALM 0 0 0 0 - - 2.6
24/07:30am 25.9 32.2 24.7 93 0.8 CALM 0 0 0 0 - - 2.6
24/07:00am 25.3 30.9 24.3 94 0.7 E 2 9 1 5 - - 2.6
24/06:30am 25.3 30.2 24.3 94 0.7 S 6 9 3 5 - - 2.6
24/06:00am 25.2 30.0 24.2 94 0.7 SE 6 11 3 6 - - 2.6
24/05:30am 25.1 31.0 24.1 94 0.7 CALM 0 0 0 0 - - 2.6
24/05:00am 25.1 31.1 24.2 95 0.6 CALM 0 0 0 0 - - 2.6
24/04:30am 25.2 30.7 24.0 93 0.8 SSE 2 7 1 4 - - 2.6
24/04:00am 25.3 31.3 24.3 94 0.7 CALM 0 0 0 0 - - 2.6
24/03:30am 25.3 31.3 24.3 94 0.7 CALM 0 0 0 0 - - 2.6
24/03:00am 25.2 31.2 24.2 94 0.7 CALM 0 0 0 0 - - 2.6
24/02:30am 25.0 30.8 24.0 94 0.7 CALM 0 0 0 0 - - 2.6
24/02:00am 25.0 29.6 23.8 93 0.8 ESE 6 9 3 5 - - 2.6
24/01:30am 25.2 30.8 23.6 91 1.1 CALM 0 6 0 3 - - 2.6
24/01:00am 25.2 30.4 23.6 91 1.1 SSE 2 7 1 4 - - 2.6
24/12:30am 25.0 28.7 23.2 90 1.2 S 9 11 5 6 - - 2.6
24/12:00am 24.8 28.2 23.4 92 1.0 S 11 15 6 8 - - 2.6
 
Date/Time
EST
Temp
°C
App
Temp
°C
Dew
Point
Rel
Hum
%
Delta-T
°C
Wind Press
QNH
hPa
Press
MSL
hPa
Rain
since 9 am
mm
Dir
 
Spd
km/h
Gust
km/h
Spd
kts
Gust
kts
23/11:30pm 24.9 28.5 23.7 93 0.8 SE 11 17 6 9 - - 2.6
23/11:00pm 25.0 27.0 23.6 92 1.0 S 19 30 10 16 - - 2.6
23/10:30pm 25.8 27.6 23.3 86 1.7 SSE 19 32 10 17 - - 2.6
23/10:00pm 27.9 35.5 26.7 93 0.9 CALM 0 6 0 3 - - 2.6
23/09:30pm 28.2 35.6 26.4 90 1.3 CALM 0 6 0 3 - - 2.6
23/09:00pm 28.3 34.6 26.5 90 1.3 N 6 9 3 5 - - 2.6
23/08:30pm 28.4 35.5 26.6 90 1.3 NNW 2 7 1 4 - - 2.2
23/08:00pm 29.3 35.3 26.1 83 2.3 N 6 13 3 7 - - 0.0
23/07:30pm 29.4 35.0 25.8 81 2.6 NNW 7 13 4 7 - - 0.0
23/07:00pm 29.4 34.9 25.6 80 2.7 N 7 13 4 7 - - 0.0
23/06:30pm 29.5 34.2 25.5 79 2.8 N 11 19 6 10 - - 0.0
23/06:00pm 29.6 34.2 26.0 81 2.6 N 13 20 7 11 - - 0.0
23/05:30pm 30.1 34.8 25.6 77 3.2 NNW 11 20 6 11 - - 0.0
23/05:00pm 30.7 34.7 25.1 72 3.9 N 13 26 7 14 - - 0.0
23/04:30pm 31.1 35.1 25.0 70 4.3 N 13 20 7 11 - - 0.0
23/04:00pm 30.7 34.1 24.6 70 4.3 N 15 26 8 14 - - 0.0
23/03:30pm 31.7 35.6 24.8 67 4.9 N 13 22 7 12 - - 0.0
23/03:00pm 30.9 34.8 24.8 70 4.3 N 13 24 7 13 - - 0.0
23/02:30pm 31.5 35.1 24.4 66 5.0 N 13 26 7 14 - - 0.0
23/02:00pm 31.9 35.4 24.2 63 5.4 NNE 13 24 7 13 - - 0.0
23/01:30pm 33.0 36.3 24.5 61 6.0 N 15 28 8 15 - - 0.0
23/01:00pm 32.5 35.8 24.5 62 5.6 NNE 15 26 8 14 - - 0.0
23/12:30pm 31.4 34.4 24.0 65 5.1 NE 15 26 8 14 - - 0.0
23/12:00pm 31.3 34.3 24.7 68 4.6 NE 17 24 9 13 - - 0.0
23/11:30am 32.3 35.9 24.3 62 5.6 NE 13 26 7 14 - - 0.0
23/11:00am 32.6 36.3 24.6 62 5.6 NE 13 20 7 11 - - 0.0
23/10:30am 32.2 35.6 22.0 55 6.9 ENE 7 11 4 6 - - 0.0
23/10:00am 31.8 36.2 22.8 59 6.2 N 4 11 2 6 - - 0.0
23/09:30am 32.0 36.2 22.4 57 6.6 SSW 4 9 2 5 - - 0.0
23/09:00am 31.2 35.1 21.9 57 6.3 ESE 4 11 2 6 - - 2.8
23/08:30am 30.5 34.5 22.1 61 5.7 NNW 4 11 2 6 - - 2.8
23/08:00am 29.1 33.0 22.6 68 4.4 N 6 7 3 4 - - 2.8
23/07:30am 27.7 32.5 23.5 78 2.9 N 4 9 2 5 - - 2.8
23/07:00am 26.5 30.3 22.8 80 2.5 NNW 7 13 4 7 - - 2.8
23/06:30am 25.4 30.0 22.5 84 1.9 WNW 2 11 1 6 - - 2.8
23/06:00am 24.6 29.8 22.8 90 1.2 CALM 0 0 0 0 - - 2.8
23/05:30am 24.8 29.9 22.7 88 1.4 CALM 0 0 0 0 - - 2.8
23/05:00am 25.3 30.7 23.2 88 1.4 CALM 0 0 0 0 - - 2.8
23/04:30am 25.7 30.9 22.8 84 2.0 CALM 0 0 0 0 - - 2.8
23/04:00am 25.7 30.9 22.8 84 2.0 CALM 0 0 0 0 - - 2.8
23/03:30am 25.9 31.1 22.8 83 2.1 CALM 0 6 0 3 - - 2.8
23/03:00am 26.0 31.1 23.3 85 1.8 NW 2 9 1 5 - - 2.8
23/02:30am 26.8 31.6 22.8 79 2.7 WNW 2 6 1 3 - - 2.8
23/02:00am 26.6 30.8 23.1 81 2.4 WSW 6 9 3 5 - - 2.8
23/01:30am 27.0 32.1 23.3 80 2.5 WSW 2 11 1 6 - - 2.8
23/01:00am 27.2 30.3 22.8 77 3.0 W 11 17 6 9 - - 2.8
23/12:30am 27.6 30.1 22.5 74 3.4 WNW 13 19 7 10 - - 2.8
23/12:00am 26.7 31.1 23.4 82 2.3 WNW 6 13 3 7 - - 2.8
 
Date/Time
EST
Temp
°C
App
Temp
°C
Dew
Point
Rel
Hum
%
Delta-T
°C
Wind Press
QNH
hPa
Press
MSL
hPa
Rain
since 9 am
mm
Dir
 
Spd
km/h
Gust
km/h
Spd
kts
Gust
kts
22/11:30pm 27.8 31.6 23.4 77 3.0 WNW 9 13 5 7 - - 2.8
22/11:00pm 28.5 31.5 22.7 71 3.9 NW 11 20 6 11 - - 2.8
22/10:30pm 27.6 31.1 23.6 79 2.7 NW 11 15 6 8 - - 2.8

Other Formats:

Comma delimited format used in spreadsheet applications
http://www.bom.gov.au/fwo/IDQ60801/IDQ60801.94288.axf

JavaScript Object Notation format (JSON) in row-major order
http://www.bom.gov.au/fwo/IDQ60801/IDQ60801.94288.json